createdAt,value
2023-05-23T00:01:49.747Z,7.18
2023-05-23T00:04:20.407Z,7.35
2023-05-23T00:06:50.564Z,7.13
2023-05-23T00:09:17.881Z,6.97
2023-05-23T00:11:45.625Z,7.80
2023-05-23T00:14:14.255Z,7.72
2023-05-23T00:16:45.209Z,8.00
2023-05-23T00:19:15.337Z,7.70
2023-05-23T00:21:49.564Z,7.60
2023-05-23T00:24:18.771Z,7.55
2023-05-23T00:26:46.549Z,7.70
2023-05-23T00:29:16.492Z,7.68
2023-05-23T00:31:46.577Z,8.18
2023-05-23T00:34:15.669Z,7.22
2023-05-23T00:36:44.397Z,7.60
2023-05-23T00:39:19.726Z,7.60
2023-05-23T00:41:51.808Z,7.45
2023-05-23T00:44:20.392Z,7.13
2023-05-23T00:46:58.243Z,7.93
2023-05-23T00:49:28.162Z,8.05
2023-05-23T00:51:55.582Z,8.00
2023-05-23T00:54:28.672Z,7.15
2023-05-23T00:56:56.213Z,7.47
2023-05-23T00:59:26.253Z,7.45
2023-05-23T01:01:56.317Z,8.05
2023-05-23T01:04:27.050Z,8.13
2023-05-23T01:06:58.203Z,7.13
2023-05-23T01:12:57.409Z,7.90
2023-05-23T01:15:32.198Z,8.05
2023-05-23T01:18:14.507Z,7.72
2023-05-23T01:21:06.239Z,8.32
2023-05-23T01:23:46.047Z,8.15
2023-05-23T01:26:26.251Z,7.55
2023-05-23T01:29:05.979Z,8.15
2023-05-23T01:31:36.788Z,7.82
2023-05-23T01:34:04.668Z,7.57
2023-05-23T01:36:35.469Z,8.00
2023-05-23T01:39:02.730Z,7.88
2023-05-23T01:41:29.708Z,8.18
2023-05-23T01:43:56.761Z,8.02
2023-05-23T01:46:25.034Z,8.23
2023-05-23T01:48:56.055Z,7.93
2023-05-23T01:51:23.803Z,8.23
2023-05-23T01:53:51.520Z,8.13
2023-05-23T01:56:19.986Z,8.52
2023-05-23T01:58:47.281Z,7.30
2023-05-23T02:01:14.703Z,7.80
2023-05-23T02:03:42.055Z,7.47
2023-05-23T02:06:09.088Z,7.93
2023-05-23T02:08:36.105Z,7.97
2023-05-23T02:11:03.403Z,7.95
2023-05-23T02:13:30.892Z,8.30
2023-05-23T02:15:59.132Z,8.00
2023-05-23T02:18:26.428Z,7.82
2023-05-23T02:20:53.455Z,7.80
2023-05-23T02:23:20.421Z,7.95
2023-05-23T02:25:47.620Z,7.57
2023-05-23T02:28:14.660Z,7.93
2023-05-23T02:30:41.852Z,7.97
2023-05-23T02:33:09.007Z,7.63
2023-05-23T02:35:36.022Z,8.00
2023-05-23T02:38:03.192Z,7.88
2023-05-23T02:40:30.231Z,7.28
2023-05-23T02:42:59.999Z,7.82
2023-05-23T02:45:27.112Z,7.95
2023-05-23T02:47:54.871Z,7.88
2023-05-23T02:50:21.944Z,7.75
2023-05-23T02:52:48.959Z,8.20
2023-05-23T02:55:16.225Z,8.27
2023-05-23T02:57:46.973Z,8.25
2023-05-23T03:00:15.727Z,7.38
2023-05-23T03:02:47.531Z,7.88
2023-05-23T03:05:14.721Z,7.47
2023-05-23T03:07:41.693Z,7.82
2023-05-23T03:10:09.367Z,7.43
2023-05-23T03:12:37.054Z,8.10
2023-05-23T03:15:04.487Z,7.53
2023-05-23T03:17:31.610Z,7.72
2023-05-23T03:19:58.620Z,7.38
2023-05-23T03:22:25.572Z,7.18
2023-05-23T03:24:52.653Z,7.93
2023-05-23T03:27:19.606Z,7.75
2023-05-23T03:29:48.166Z,7.93
2023-05-23T03:32:15.377Z,7.88
2023-05-23T03:34:42.679Z,7.35
2023-05-23T03:37:11.963Z,8.00
2023-05-23T03:39:39.922Z,7.70
2023-05-23T03:42:07.596Z,7.57
2023-05-23T03:44:34.962Z,8.05
2023-05-23T03:47:04.014Z,7.88
2023-05-23T03:49:30.973Z,8.15
2023-05-23T03:51:58.136Z,8.25
2023-05-23T03:54:26.491Z,7.90
2023-05-23T03:56:53.513Z,8.13
2023-05-23T03:59:20.477Z,7.18
2023-05-23T04:01:48.141Z,8.38
2023-05-23T04:04:17.262Z,7.75
2023-05-23T04:06:44.543Z,8.38
2023-05-23T04:09:11.577Z,7.75
2023-05-23T04:11:42.542Z,7.80
2023-05-23T04:14:09.543Z,7.97
2023-05-23T04:16:38.527Z,8.00
2023-05-23T04:19:06.295Z,8.35
2023-05-23T04:21:34.012Z,7.85
2023-05-23T04:24:08.405Z,8.05
2023-05-23T04:26:36.642Z,8.15
2023-05-23T04:29:06.143Z,8.40
2023-05-23T04:31:36.403Z,8.40
2023-05-23T04:34:04.082Z,8.55
2023-05-23T04:36:38.145Z,8.85
2023-05-23T04:39:08.387Z,8.63
2023-05-23T04:41:40.879Z,8.88
2023-05-23T04:44:43.246Z,8.25
2023-05-23T04:47:14.305Z,8.80
2023-05-23T04:49:58.458Z,8.63
2023-05-23T04:52:27.554Z,8.50
2023-05-23T04:54:54.752Z,8.77
2023-05-23T04:57:22.207Z,8.27
2023-05-23T04:59:49.446Z,8.02
2023-05-23T05:02:16.541Z,8.27
2023-05-23T05:04:44.416Z,7.97
2023-05-23T05:07:11.662Z,7.60
2023-05-23T05:09:39.497Z,7.65
2023-05-23T05:12:07.125Z,7.35
2023-05-23T05:14:34.177Z,8.07
2023-05-23T05:17:02.969Z,7.43
2023-05-23T05:19:38.497Z,7.93
2023-05-23T05:22:08.120Z,7.85
2023-05-23T05:24:35.638Z,7.50
2023-05-23T05:27:03.361Z,8.30
2023-05-23T05:29:31.391Z,7.68
2023-05-23T05:31:58.744Z,7.65
2023-05-23T05:34:25.768Z,7.47
2023-05-23T05:36:56.064Z,7.68
2023-05-23T05:39:26.319Z,7.57
2023-05-23T05:41:53.933Z,7.47
2023-05-23T05:44:21.056Z,7.43
2023-05-23T05:46:48.673Z,7.70
2023-05-23T05:49:15.824Z,7.03
2023-05-23T05:51:45.453Z,7.00
2023-05-23T05:54:13.016Z,7.25
2023-05-23T05:56:40.167Z,7.05
2023-05-23T05:59:07.318Z,7.50
2023-05-23T06:01:34.957Z,7.28
2023-05-23T06:04:02.118Z,8.02
2023-05-23T06:06:29.325Z,7.50
2023-05-23T06:08:56.425Z,7.20
2023-05-23T06:11:23.459Z,6.90
2023-05-23T06:13:51.226Z,6.88
2023-05-23T06:16:19.050Z,7.22
2023-05-23T06:18:46.688Z,6.97
2023-05-23T06:21:13.809Z,7.30
2023-05-23T06:23:41.460Z,6.88
2023-05-23T06:26:10.940Z,6.82
2023-05-23T06:28:41.955Z,7.07
2023-05-23T06:31:10.272Z,7.28
2023-05-23T06:33:37.560Z,7.18
2023-05-23T06:36:04.688Z,7.25
2023-05-23T06:38:35.583Z,7.25
2023-05-23T06:41:03.883Z,7.35
2023-05-23T06:43:32.011Z,7.30
2023-05-23T06:46:21.938Z,7.50
2023-05-23T06:48:54.243Z,7.47
2023-05-23T06:51:26.749Z,7.20
2023-05-23T06:53:53.867Z,7.32
2023-05-23T06:56:20.997Z,7.03
2023-05-23T06:58:54.628Z,7.65
2023-05-23T07:01:22.182Z,7.43
2023-05-23T07:03:50.882Z,7.32
2023-05-23T07:06:18.277Z,7.80
2023-05-23T07:08:46.836Z,6.88
2023-05-23T07:11:15.238Z,7.35
2023-05-23T07:13:45.419Z,7.55
2023-05-23T07:16:22.393Z,7.45
2023-05-23T07:19:03.438Z,6.97
2023-05-23T07:21:31.931Z,7.38
2023-05-23T07:23:59.387Z,7.43
2023-05-23T07:26:27.882Z,7.97
2023-05-23T07:28:56.488Z,7.15
2023-05-23T07:31:23.516Z,7.20
2023-05-23T07:33:56.770Z,7.35
2023-05-23T07:36:34.241Z,6.78
2023-05-23T07:39:02.549Z,6.93
2023-05-23T07:41:29.605Z,6.95
2023-05-23T07:43:56.621Z,7.95
2023-05-23T07:46:23.931Z,7.28
2023-05-23T07:48:51.047Z,7.28
2023-05-23T07:51:21.233Z,7.10
2023-05-23T07:53:49.596Z,7.25
2023-05-23T07:56:18.450Z,6.78
2023-05-23T07:58:46.580Z,7.10
2023-05-23T08:01:13.645Z,6.97
2023-05-23T08:04:04.567Z,6.85
2023-05-23T08:06:35.404Z,6.70
2023-05-23T08:09:06.785Z,6.28
2023-05-23T08:11:37.913Z,5.82
2023-05-23T08:14:06.387Z,6.05
2023-05-23T08:16:39.892Z,6.00
2023-05-23T08:19:12.458Z,6.00
2023-05-23T08:21:39.690Z,5.97
2023-05-23T08:24:06.827Z,6.03
2023-05-23T08:26:36.173Z,6.15
2023-05-23T08:29:05.868Z,5.95
2023-05-23T08:31:35.803Z,6.05
2023-05-23T08:34:05.151Z,5.75
2023-05-23T08:36:36.626Z,6.10
2023-05-23T08:39:06.178Z,5.78
2023-05-23T08:41:37.389Z,6.10
2023-05-23T08:44:09.693Z,5.93
2023-05-23T08:46:46.826Z,6.28
2023-05-23T08:49:23.204Z,6.00
2023-05-23T08:51:52.383Z,6.10
2023-05-23T08:54:22.361Z,6.00
2023-05-23T08:56:49.799Z,6.13
2023-05-23T08:59:18.908Z,6.00
2023-05-23T09:01:48.504Z,6.28
2023-05-23T09:04:16.376Z,6.40
2023-05-23T09:06:55.685Z,6.10
2023-05-23T09:09:23.283Z,6.72
2023-05-23T09:11:52.189Z,6.85
2023-05-23T09:14:19.791Z,6.80
2023-05-23T09:16:49.317Z,7.07
2023-05-23T09:19:21.332Z,8.20
2023-05-23T09:21:57.146Z,7.63
2023-05-23T09:24:37.156Z,7.72
2023-05-23T09:27:08.092Z,6.95
2023-05-23T09:29:41.544Z,6.95
2023-05-23T09:32:13.273Z,7.90
2023-05-23T09:34:42.258Z,7.07
2023-05-23T09:37:13.562Z,6.88
2023-05-23T09:39:40.767Z,6.80
2023-05-23T09:42:08.469Z,6.63
2023-05-23T09:44:42.414Z,6.57
2023-05-23T09:47:09.867Z,6.20
2023-05-23T09:49:40.551Z,6.03
2023-05-23T09:52:07.759Z,6.22
2023-05-23T09:54:35.166Z,6.82
2023-05-23T09:57:02.921Z,7.03
2023-05-23T09:59:34.102Z,7.28
2023-05-23T10:02:03.693Z,6.50
2023-05-23T10:04:34.390Z,7.35
2023-05-23T10:07:14.911Z,6.75
2023-05-23T10:09:43.930Z,7.07
2023-05-23T10:12:29.349Z,6.88
2023-05-23T10:15:02.204Z,5.72
2023-05-23T10:17:32.821Z,5.88
2023-05-23T10:20:12.506Z,5.78
2023-05-23T10:22:40.323Z,6.30
2023-05-23T10:25:10.381Z,6.38
2023-05-23T10:27:39.417Z,6.50
2023-05-23T10:30:08.257Z,6.15
2023-05-23T10:32:38.623Z,5.93
2023-05-23T10:35:17.602Z,6.20
2023-05-23T10:37:56.102Z,5.53
2023-05-23T10:40:46.469Z,6.10
2023-05-23T10:43:40.484Z,6.03
2023-05-23T10:46:12.949Z,5.60
2023-05-23T10:48:44.150Z,6.38
2023-05-23T10:51:14.382Z,5.57
2023-05-23T10:53:43.458Z,5.68
2023-05-23T10:56:23.949Z,6.05
2023-05-23T10:58:55.335Z,5.80
2023-05-23T11:01:23.864Z,5.90
2023-05-23T11:03:54.858Z,6.05
2023-05-23T11:06:44.363Z,5.32
2023-05-23T11:09:19.445Z,5.22
2023-05-23T11:11:53.168Z,5.60
2023-05-23T11:14:35.086Z,5.85
2023-05-23T11:17:17.194Z,5.63
2023-05-23T11:20:06.165Z,5.38
2023-05-23T11:22:36.805Z,5.90
2023-05-23T11:25:09.302Z,5.30
2023-05-23T11:27:38.177Z,5.40
2023-05-23T11:30:14.261Z,5.57
2023-05-23T11:32:42.669Z,5.88
2023-05-23T11:35:11.559Z,5.15
2023-05-23T11:37:39.821Z,5.13
2023-05-23T11:40:48.427Z,5.45
2023-05-23T11:43:19.312Z,5.43
2023-05-23T11:45:49.199Z,4.78
2023-05-23T11:48:17.834Z,4.68
2023-05-23T11:50:50.208Z,4.95
2023-05-23T11:53:20.678Z,4.70
2023-05-23T11:55:58.638Z,4.63
2023-05-23T11:58:37.843Z,5.35
2023-05-23T12:01:07.172Z,4.95
2023-05-23T12:03:47.718Z,4.45
2023-05-23T12:06:22.436Z,4.53
2023-05-23T12:08:49.858Z,4.35
2023-05-23T12:11:42.743Z,4.60
2023-05-23T12:14:15.721Z,4.40
2023-05-23T12:16:47.915Z,4.18
2023-05-23T12:19:17.412Z,4.00
2023-05-23T12:21:49.015Z,4.35
2023-05-23T12:24:19.689Z,4.47
2023-05-23T12:26:47.671Z,3.83
2023-05-23T12:29:14.753Z,4.10
2023-05-23T12:31:41.910Z,3.70
2023-05-23T12:34:11.161Z,3.80
2023-05-23T12:36:47.913Z,3.30
2023-05-23T12:39:16.610Z,2.83
2023-05-23T12:41:44.619Z,2.60
2023-05-23T12:44:15.397Z,2.50
2023-05-23T12:46:42.552Z,2.70
2023-05-23T12:49:09.756Z,2.30
2023-05-23T12:51:37.010Z,2.35
2023-05-23T12:54:04.562Z,2.50
2023-05-23T12:56:31.763Z,2.35
2023-05-23T12:58:58.774Z,2.28
2023-05-23T13:01:25.890Z,2.20
2023-05-23T13:03:53.041Z,2.05
2023-05-23T13:06:20.012Z,2.00
2023-05-23T13:08:47.749Z,2.58
2023-05-23T13:11:14.855Z,1.80
2023-05-23T13:13:42.069Z,2.20
2023-05-23T13:16:09.666Z,2.00
2023-05-23T13:18:36.673Z,2.08
2023-05-23T13:21:03.828Z,1.85
2023-05-23T13:23:30.933Z,1.80
2023-05-23T13:25:58.136Z,1.92
2023-05-23T13:28:25.376Z,1.80
2023-05-23T13:30:53.036Z,1.83
2023-05-23T13:33:20.197Z,1.90
2023-05-23T13:35:49.329Z,1.98
2023-05-23T13:38:19.528Z,1.92
2023-05-23T13:40:47.140Z,1.98
2023-05-23T13:43:15.822Z,1.80
2023-05-23T13:45:42.975Z,2.00
2023-05-23T13:48:10.184Z,1.98
2023-05-23T13:50:37.254Z,1.73
2023-05-23T13:53:04.265Z,1.80
2023-05-23T13:55:31.641Z,1.88
2023-05-23T13:57:58.588Z,1.90
2023-05-23T14:00:25.630Z,1.77
2023-05-23T14:02:52.675Z,2.10
2023-05-23T14:05:21.174Z,2.00
2023-05-23T14:07:48.440Z,2.10
2023-05-23T14:10:17.494Z,2.00
2023-05-23T14:12:44.743Z,2.13
2023-05-23T14:15:12.160Z,2.15
2023-05-23T14:17:39.728Z,2.30
2023-05-23T14:20:07.991Z,2.03
2023-05-23T14:22:35.078Z,2.00
2023-05-23T14:25:02.154Z,2.03
2023-05-23T14:27:29.180Z,2.00
2023-05-23T14:29:56.294Z,2.20
2023-05-23T14:32:23.394Z,2.00
2023-05-23T14:34:50.548Z,2.00
2023-05-23T14:37:17.523Z,2.20
2023-05-23T14:39:44.600Z,2.13
2023-05-23T14:42:11.604Z,1.90
2023-05-23T14:44:38.638Z,1.95
2023-05-23T14:47:05.809Z,2.20
2023-05-23T14:49:32.781Z,2.42
2023-05-23T14:52:00.003Z,2.13
2023-05-23T14:54:27.062Z,2.17
2023-05-23T14:56:54.123Z,2.30
2023-05-23T14:59:21.880Z,2.15
2023-05-23T15:01:49.327Z,2.15
2023-05-23T15:04:16.470Z,2.08
2023-05-23T15:06:43.528Z,2.00
2023-05-23T15:09:10.795Z,2.30
2023-05-23T15:11:42.385Z,2.33
2023-05-23T15:14:09.654Z,2.42
2023-05-23T15:16:37.502Z,1.98
2023-05-23T15:19:05.282Z,2.40
2023-05-23T15:21:32.361Z,2.40
2023-05-23T15:23:59.909Z,2.60
2023-05-23T15:26:27.438Z,2.35
2023-05-23T15:28:54.775Z,2.35
2023-05-23T15:31:21.976Z,2.40
2023-05-23T15:33:49.165Z,2.42
2023-05-23T15:36:16.178Z,2.60
2023-05-23T15:38:43.929Z,2.65
2023-05-23T15:41:11.954Z,2.70
2023-05-23T15:43:39.020Z,2.90
2023-05-23T15:46:06.337Z,2.50
2023-05-23T15:48:33.292Z,2.70
2023-05-23T15:51:00.523Z,2.67
2023-05-23T15:53:27.833Z,2.80
2023-05-23T15:55:55.379Z,2.40
2023-05-23T15:58:22.372Z,2.40
2023-05-23T16:00:49.431Z,2.38
2023-05-23T16:03:16.551Z,2.30
2023-05-23T16:05:44.110Z,2.55
2023-05-23T16:08:11.287Z,2.22
2023-05-23T16:10:38.379Z,2.15
2023-05-23T16:13:05.542Z,2.40
2023-05-23T16:15:32.696Z,2.60
2023-05-23T16:18:00.120Z,4.80
2023-05-23T16:20:27.298Z,3.30
2023-05-23T16:22:54.313Z,2.47
2023-05-23T16:25:21.441Z,2.40
2023-05-23T16:27:48.471Z,2.25
2023-05-23T16:30:16.149Z,2.40
2023-05-23T16:32:43.332Z,2.47
2023-05-23T16:35:11.221Z,2.60
2023-05-23T16:37:38.820Z,2.17
2023-05-23T16:40:06.639Z,2.40
2023-05-23T16:42:33.759Z,2.47
2023-05-23T16:45:00.870Z,2.40
2023-05-23T16:47:27.945Z,2.55
2023-05-23T16:49:55.156Z,2.40
2023-05-23T16:52:22.448Z,2.30
2023-05-23T16:54:49.524Z,2.50
2023-05-23T16:57:16.661Z,2.35
2023-05-23T16:59:43.704Z,2.28
2023-05-23T17:02:14.385Z,2.28
2023-05-23T17:04:41.583Z,2.30
2023-05-23T17:07:09.584Z,2.28
2023-05-23T17:09:37.061Z,2.50
2023-05-23T17:12:04.474Z,2.40
2023-05-23T17:14:32.046Z,2.50
2023-05-23T17:16:59.190Z,2.42
2023-05-23T17:19:26.454Z,2.65
2023-05-23T17:21:53.481Z,2.13
2023-05-23T17:24:20.561Z,2.53
2023-05-23T17:26:47.799Z,2.45
2023-05-23T17:29:17.304Z,2.15
2023-05-23T17:31:44.566Z,2.30
2023-05-23T17:34:12.773Z,2.15
2023-05-23T17:36:39.786Z,1.73
2023-05-23T17:39:07.091Z,2.10
2023-05-23T17:41:34.079Z,2.05
2023-05-23T17:44:02.585Z,1.80
2023-05-23T17:46:29.976Z,2.00
2023-05-23T17:48:57.007Z,1.80
2023-05-23T17:51:24.051Z,1.92
2023-05-23T17:53:53.710Z,2.00
2023-05-23T17:56:23.472Z,1.80
2023-05-23T17:58:51.059Z,1.70
2023-05-23T18:01:18.147Z,1.90
2023-05-23T18:03:45.381Z,1.80
2023-05-23T18:06:12.604Z,1.73
2023-05-23T18:08:40.923Z,1.90
2023-05-23T18:11:07.953Z,1.80
2023-05-23T18:13:37.432Z,1.88
2023-05-23T18:16:04.684Z,1.55
2023-05-23T18:18:34.335Z,1.50
2023-05-23T18:21:02.103Z,1.80
2023-05-23T18:23:29.342Z,1.80
2023-05-23T18:25:57.110Z,1.88
2023-05-23T18:28:24.679Z,1.50
2023-05-23T18:30:52.231Z,1.80
2023-05-23T18:33:19.378Z,1.70
2023-05-23T18:35:50.202Z,1.90
2023-05-23T18:38:23.095Z,1.60
2023-05-23T18:40:56.622Z,1.90
2023-05-23T18:43:29.001Z,1.95
2023-05-23T18:45:59.260Z,1.90
2023-05-23T18:48:34.224Z,1.92
2023-05-23T18:51:05.782Z,2.03
2023-05-23T18:53:33.092Z,1.90
2023-05-23T18:56:00.883Z,2.03
2023-05-23T18:58:28.145Z,1.90
2023-05-23T19:00:56.344Z,1.95
2023-05-23T19:03:28.584Z,1.98
2023-05-23T19:06:02.464Z,2.28
2023-05-23T19:08:33.025Z,1.90
2023-05-23T19:11:04.851Z,2.28
2023-05-23T19:13:32.652Z,2.30
2023-05-23T19:15:59.983Z,2.10
2023-05-23T19:18:29.277Z,2.20
2023-05-23T19:21:00.222Z,1.95
2023-05-23T19:23:36.097Z,2.38
2023-05-23T19:26:06.406Z,2.13
2023-05-23T19:28:38.874Z,2.00
2023-05-23T19:31:07.992Z,2.05
2023-05-23T19:33:40.214Z,2.05
2023-05-23T19:36:07.256Z,2.03
2023-05-23T19:38:34.421Z,2.50
2023-05-23T19:41:01.385Z,2.20
2023-05-23T19:43:30.918Z,2.45
2023-05-23T19:45:59.406Z,2.40
2023-05-23T19:48:39.615Z,2.22
2023-05-23T19:51:06.683Z,2.47
2023-05-23T19:53:34.515Z,2.40
2023-05-23T19:56:04.708Z,2.15
2023-05-23T19:58:32.480Z,2.50
2023-05-23T20:01:02.449Z,2.28
2023-05-23T20:03:30.147Z,2.00
2023-05-23T20:05:59.830Z,2.30
2023-05-23T20:08:30.084Z,2.50
2023-05-23T20:11:02.010Z,2.08
2023-05-23T20:13:29.990Z,2.38
2023-05-23T20:15:57.377Z,2.13
2023-05-23T20:18:25.032Z,2.15
2023-05-23T20:20:52.596Z,2.42
2023-05-23T20:23:19.802Z,1.90
2023-05-23T20:25:55.564Z,2.45
2023-05-23T20:28:24.332Z,2.25
2023-05-23T20:30:52.250Z,2.30
2023-05-23T20:33:25.723Z,2.38
2023-05-23T20:35:54.056Z,2.00
2023-05-23T20:38:21.578Z,2.30
2023-05-23T20:40:52.079Z,2.38
2023-05-23T20:43:22.395Z,2.20
2023-05-23T20:45:53.238Z,1.98
2023-05-23T20:48:21.832Z,2.10
2023-05-23T20:50:52.600Z,2.55
2023-05-23T20:53:19.700Z,2.35
2023-05-23T20:55:47.567Z,2.28
2023-05-23T20:58:18.539Z,2.00
2023-05-23T21:00:46.126Z,2.00
2023-05-23T21:03:24.970Z,2.20
2023-05-23T21:05:58.383Z,2.10
2023-05-23T21:08:25.503Z,2.20
2023-05-23T21:10:54.736Z,2.30
2023-05-23T21:13:22.759Z,2.30
2023-05-23T21:15:50.231Z,1.92
2023-05-23T21:18:17.996Z,2.10
2023-05-23T21:20:47.832Z,2.03
2023-05-23T21:23:17.939Z,2.00
2023-05-23T21:25:57.155Z,2.00
2023-05-23T21:28:24.599Z,2.00
2023-05-23T21:30:55.132Z,2.05
2023-05-23T21:33:22.927Z,2.10
2023-05-23T21:35:51.107Z,2.15
2023-05-23T21:38:21.361Z,2.45
2023-05-23T21:40:51.741Z,2.58
2023-05-23T21:43:22.011Z,2.50
2023-05-23T21:45:49.200Z,2.40
2023-05-23T21:48:19.355Z,2.30
2023-05-23T21:50:46.540Z,2.70
2023-05-23T21:53:19.206Z,2.40
2023-05-23T21:55:52.678Z,2.30
2023-05-23T21:58:20.487Z,2.20
2023-05-23T22:00:50.632Z,2.10
2023-05-23T22:03:17.682Z,1.85
2023-05-23T22:05:48.107Z,1.98
2023-05-23T22:08:18.432Z,2.05
2023-05-23T22:10:48.389Z,2.20
2023-05-23T22:13:19.562Z,2.05
2023-05-23T22:15:47.106Z,2.20
2023-05-23T22:18:20.043Z,2.10
2023-05-23T22:20:51.180Z,2.40
2023-05-23T22:23:21.079Z,2.20
2023-05-23T22:25:53.409Z,2.03
2023-05-23T22:28:22.921Z,1.85
2023-05-23T22:30:50.251Z,2.00
2023-05-23T22:33:20.455Z,2.10
2023-05-23T22:35:48.398Z,2.00
2023-05-23T22:38:18.827Z,2.20
2023-05-23T22:40:48.963Z,2.40
2023-05-23T22:43:17.751Z,2.35
2023-05-23T22:45:51.768Z,1.90
2023-05-23T22:48:19.469Z,2.00
2023-05-23T22:50:47.456Z,1.92
2023-05-23T22:53:16.765Z,2.30
2023-05-23T22:55:44.052Z,1.98
2023-05-23T22:58:11.134Z,2.20
2023-05-23T23:00:40.774Z,2.30
2023-05-23T23:03:08.622Z,2.33
2023-05-23T23:05:35.987Z,2.10
2023-05-23T23:08:03.471Z,2.20
2023-05-23T23:10:31.777Z,2.25
2023-05-23T23:13:01.678Z,2.40
2023-05-23T23:15:30.566Z,2.38
2023-05-23T23:17:58.076Z,2.17
2023-05-23T23:20:32.613Z,2.22
2023-05-23T23:23:02.785Z,2.28
2023-05-23T23:25:30.463Z,2.97
2023-05-23T23:27:57.636Z,2.20
2023-05-23T23:30:24.930Z,1.85
2023-05-23T23:32:51.953Z,2.50
2023-05-23T23:35:20.465Z,2.38
2023-05-23T23:37:48.040Z,1.98
2023-05-23T23:40:18.065Z,2.05
2023-05-23T23:42:50.971Z,2.10
2023-05-23T23:45:18.160Z,2.63
2023-05-23T23:47:51.541Z,2.30
2023-05-23T23:50:24.907Z,2.30
2023-05-23T23:52:51.899Z,2.20
2023-05-23T23:55:21.526Z,2.13
2023-05-23T23:57:49.447Z,2.38
